Flemington, Missouri
Current Conditions -  °F | °C
As of 7:35 AM on Monday 22 Dec 2014 (Local Time) from KGLY Reporting Station
Overcast Overcast  
Wind Chill: 39°   Ceiling: 2800
Heat Index: 43°   Visibility: 10mi
Dew Point: 39°   Wind: 6mph
Humidity: 87%   Direction: 140°SE
Pressure: 29.65"   Gusts: NA
Location:  37.8°N, 93.5°W
Report Text: KGLY 221335Z AUTO 14005KT 10SM FEW020 OVC028 06/04 A2965 RMK AO2
Loading
Personal Weather Stations






























Interactive Weather Map New forecast layout! Learn more

10-Day Weather Forecast

Advertisements
Track Severe Weather on mobile